sensor_id;sensor_type;location;lat;lon;timestamp;P1;durP1;ratioP1;P2;durP2;ratioP2
11921;SDS011;6021;51.182;3.160;2024-02-15T00:00:05;9.53;;;5.50;;
11921;SDS011;6021;51.182;3.160;2024-02-15T00:02:34;8.03;;;5.10;;
11921;SDS011;6021;51.182;3.160;2024-02-15T00:05:03;7.07;;;4.63;;
11921;SDS011;6021;51.182;3.160;2024-02-15T00:07:32;10.60;;;5.10;;
11921;SDS011;6021;51.182;3.160;2024-02-15T00:10:01;8.40;;;4.70;;
11921;SDS011;6021;51.182;3.160;2024-02-15T00:12:30;9.63;;;4.70;;
11921;SDS011;6021;51.182;3.160;2024-02-15T00:14:58;7.00;;;4.10;;
11921;SDS011;6021;51.182;3.160;2024-02-15T00:17:27;7.63;;;4.10;;
11921;SDS011;6021;51.182;3.160;2024-02-15T00:19:56;7.80;;;4.33;;
11921;SDS011;6021;51.182;3.160;2024-02-15T00:22:24;8.27;;;3.87;;
11921;SDS011;6021;51.182;3.160;2024-02-15T00:24:53;10.30;;;4.17;;
11921;SDS011;6021;51.182;3.160;2024-02-15T00:27:21;7.23;;;4.00;;
11921;SDS011;6021;51.182;3.160;2024-02-15T00:29:49;8.27;;;4.00;;
11921;SDS011;6021;51.182;3.160;2024-02-15T00:32:18;6.77;;;3.73;;
11921;SDS011;6021;51.182;3.160;2024-02-15T00:34:46;7.97;;;3.83;;
11921;SDS011;6021;51.182;3.160;2024-02-15T00:37:14;8.63;;;4.00;;
11921;SDS011;6021;51.182;3.160;2024-02-15T00:39:43;6.73;;;3.80;;
11921;SDS011;6021;51.182;3.160;2024-02-15T00:42:11;8.10;;;4.20;;
11921;SDS011;6021;51.182;3.160;2024-02-15T00:44:39;8.63;;;4.13;;
11921;SDS011;6021;51.182;3.160;2024-02-15T00:47:09;5.97;;;3.73;;
11921;SDS011;6021;51.182;3.160;2024-02-15T00:49:38;6.27;;;3.47;;
11921;SDS011;6021;51.182;3.160;2024-02-15T00:52:07;7.63;;;3.93;;
11921;SDS011;6021;51.182;3.160;2024-02-15T00:54:35;8.93;;;4.27;;
11921;SDS011;6021;51.182;3.160;2024-02-15T00:57:04;8.23;;;4.07;;
11921;SDS011;6021;51.182;3.160;2024-02-15T00:59:32;6.30;;;3.37;;
11921;SDS011;6021;51.182;3.160;2024-02-15T01:02:02;5.83;;;3.53;;
11921;SDS011;6021;51.182;3.160;2024-02-15T01:04:33;7.03;;;4.13;;
11921;SDS011;6021;51.182;3.160;2024-02-15T01:07:02;8.23;;;3.93;;
11921;SDS011;6021;51.182;3.160;2024-02-15T01:09:30;9.47;;;4.20;;
11921;SDS011;6021;51.182;3.160;2024-02-15T01:11:58;6.70;;;3.83;;
11921;SDS011;6021;51.182;3.160;2024-02-15T01:14:29;8.17;;;4.27;;
11921;SDS011;6021;51.182;3.160;2024-02-15T01:16:58;7.67;;;3.63;;
11921;SDS011;6021;51.182;3.160;2024-02-15T01:19:26;8.13;;;4.13;;
11921;SDS011;6021;51.182;3.160;2024-02-15T01:21:55;6.53;;;3.83;;
11921;SDS011;6021;51.182;3.160;2024-02-15T01:24:25;5.93;;;3.67;;
11921;SDS011;6021;51.182;3.160;2024-02-15T01:26:53;9.30;;;3.97;;
11921;SDS011;6021;51.182;3.160;2024-02-15T01:29:22;6.13;;;3.90;;
11921;SDS011;6021;51.182;3.160;2024-02-15T01:31:52;8.17;;;4.10;;
11921;SDS011;6021;51.182;3.160;2024-02-15T01:34:20;6.87;;;3.90;;
11921;SDS011;6021;51.182;3.160;2024-02-15T01:36:49;10.17;;;3.90;;
11921;SDS011;6021;51.182;3.160;2024-02-15T01:39:17;6.40;;;3.87;;
11921;SDS011;6021;51.182;3.160;2024-02-15T01:41:46;7.17;;;4.00;;
11921;SDS011;6021;51.182;3.160;2024-02-15T01:44:17;7.77;;;4.53;;
11921;SDS011;6021;51.182;3.160;2024-02-15T01:46:47;6.67;;;4.00;;
11921;SDS011;6021;51.182;3.160;2024-02-15T01:49:18;8.43;;;4.30;;
11921;SDS011;6021;51.182;3.160;2024-02-15T01:51:49;6.87;;;4.27;;
11921;SDS011;6021;51.182;3.160;2024-02-15T01:54:19;7.43;;;4.30;;
11921;SDS011;6021;51.182;3.160;2024-02-15T01:56:47;9.30;;;4.03;;
11921;SDS011;6021;51.182;3.160;2024-02-15T01:59:16;7.13;;;4.03;;
11921;SDS011;6021;51.182;3.160;2024-02-15T02:01:44;6.37;;;3.87;;
11921;SDS011;6021;51.182;3.160;2024-02-15T02:04:13;12.00;;;4.40;;
11921;SDS011;6021;51.182;3.160;2024-02-15T02:06:41;9.63;;;4.87;;
11921;SDS011;6021;51.182;3.160;2024-02-15T02:09:10;8.23;;;4.50;;
11921;SDS011;6021;51.182;3.160;2024-02-15T02:11:44;8.70;;;4.47;;
11921;SDS011;6021;51.182;3.160;2024-02-15T02:14:14;8.63;;;4.13;;
11921;SDS011;6021;51.182;3.160;2024-02-15T02:16:43;7.10;;;4.13;;
11921;SDS011;6021;51.182;3.160;2024-02-15T02:19:13;8.67;;;3.80;;
11921;SDS011;6021;51.182;3.160;2024-02-15T02:21:45;9.20;;;4.30;;
11921;SDS011;6021;51.182;3.160;2024-02-15T02:24:15;11.70;;;4.83;;
11921;SDS011;6021;51.182;3.160;2024-02-15T02:26:45;9.00;;;4.03;;
11921;SDS011;6021;51.182;3.160;2024-02-15T02:29:15;6.47;;;4.27;;
11921;SDS011;6021;51.182;3.160;2024-02-15T02:31:45;8.90;;;4.23;;
11921;SDS011;6021;51.182;3.160;2024-02-15T02:34:16;9.97;;;4.33;;
11921;SDS011;6021;51.182;3.160;2024-02-15T02:36:46;7.30;;;4.30;;
11921;SDS011;6021;51.182;3.160;2024-02-15T02:39:14;6.23;;;3.77;;
11921;SDS011;6021;51.182;3.160;2024-02-15T02:41:43;7.03;;;4.20;;
11921;SDS011;6021;51.182;3.160;2024-02-15T02:44:11;6.57;;;3.80;;
11921;SDS011;6021;51.182;3.160;2024-02-15T02:46:41;6.73;;;3.80;;
11921;SDS011;6021;51.182;3.160;2024-02-15T02:49:10;7.13;;;4.40;;
11921;SDS011;6021;51.182;3.160;2024-02-15T02:51:38;7.67;;;3.90;;
11921;SDS011;6021;51.182;3.160;2024-02-15T02:54:06;6.37;;;3.93;;
11921;SDS011;6021;51.182;3.160;2024-02-15T02:56:35;8.87;;;4.60;;
11921;SDS011;6021;51.182;3.160;2024-02-15T02:59:03;6.60;;;4.23;;
11921;SDS011;6021;51.182;3.160;2024-02-15T03:01:33;9.20;;;4.40;;
11921;SDS011;6021;51.182;3.160;2024-02-15T03:04:02;8.60;;;4.60;;
11921;SDS011;6021;51.182;3.160;2024-02-15T03:06:30;9.43;;;4.13;;
11921;SDS011;6021;51.182;3.160;2024-02-15T03:08:59;6.23;;;3.80;;
11921;SDS011;6021;51.182;3.160;2024-02-15T03:11:27;6.33;;;4.07;;
11921;SDS011;6021;51.182;3.160;2024-02-15T03:13:55;6.27;;;4.40;;
11921;SDS011;6021;51.182;3.160;2024-02-15T03:16:25;4.60;;;3.50;;
11921;SDS011;6021;51.182;3.160;2024-02-15T03:18:54;7.13;;;4.00;;
11921;SDS011;6021;51.182;3.160;2024-02-15T03:21:22;6.77;;;3.97;;
11921;SDS011;6021;51.182;3.160;2024-02-15T03:23:51;6.13;;;3.97;;
11921;SDS011;6021;51.182;3.160;2024-02-15T03:26:28;7.73;;;4.20;;
11921;SDS011;6021;51.182;3.160;2024-02-15T03:28:50;6.83;;;4.23;;
11921;SDS011;6021;51.182;3.160;2024-02-15T03:31:19;5.07;;;3.50;;
11921;SDS011;6021;51.182;3.160;2024-02-15T03:33:47;8.17;;;4.30;;
11921;SDS011;6021;51.182;3.160;2024-02-15T03:36:16;7.07;;;4.00;;
11921;SDS011;6021;51.182;3.160;2024-02-15T03:38:46;8.60;;;4.30;;
11921;SDS011;6021;51.182;3.160;2024-02-15T03:41:15;6.00;;;3.90;;
11921;SDS011;6021;51.182;3.160;2024-02-15T03:43:43;6.77;;;4.37;;
11921;SDS011;6021;51.182;3.160;2024-02-15T03:46:13;7.53;;;4.30;;
11921;SDS011;6021;51.182;3.160;2024-02-15T03:48:41;9.17;;;4.63;;
11921;SDS011;6021;51.182;3.160;2024-02-15T03:51:16;7.73;;;4.33;;
11921;SDS011;6021;51.182;3.160;2024-02-15T03:53:50;8.83;;;4.20;;
11921;SDS011;6021;51.182;3.160;2024-02-15T03:56:18;8.43;;;4.70;;
11921;SDS011;6021;51.182;3.160;2024-02-15T03:58:48;5.17;;;4.20;;
11921;SDS011;6021;51.182;3.160;2024-02-15T04:01:17;8.30;;;4.23;;
11921;SDS011;6021;51.182;3.160;2024-02-15T04:03:46;9.70;;;4.60;;
11921;SDS011;6021;51.182;3.160;2024-02-15T04:06:14;8.73;;;4.57;;
11921;SDS011;6021;51.182;3.160;2024-02-15T04:08:42;5.73;;;4.10;;
11921;SDS011;6021;51.182;3.160;2024-02-15T04:11:11;7.20;;;4.30;;
11921;SDS011;6021;51.182;3.160;2024-02-15T04:13:40;6.47;;;3.97;;
11921;SDS011;6021;51.182;3.160;2024-02-15T04:16:09;6.93;;;4.37;;
11921;SDS011;6021;51.182;3.160;2024-02-15T04:18:37;6.60;;;4.50;;
11921;SDS011;6021;51.182;3.160;2024-02-15T04:21:05;7.10;;;4.40;;
11921;SDS011;6021;51.182;3.160;2024-02-15T04:23:35;8.43;;;4.73;;
11921;SDS011;6021;51.182;3.160;2024-02-15T04:26:03;7.27;;;4.10;;
11921;SDS011;6021;51.182;3.160;2024-02-15T04:28:32;6.20;;;4.27;;
11921;SDS011;6021;51.182;3.160;2024-02-15T04:31:00;7.57;;;4.40;;
11921;SDS011;6021;51.182;3.160;2024-02-15T04:33:29;6.83;;;4.47;;
11921;SDS011;6021;51.182;3.160;2024-02-15T04:35:57;7.67;;;4.60;;
11921;SDS011;6021;51.182;3.160;2024-02-15T04:38:27;6.27;;;3.97;;
11921;SDS011;6021;51.182;3.160;2024-02-15T04:40:55;9.33;;;4.57;;
11921;SDS011;6021;51.182;3.160;2024-02-15T04:43:25;4.73;;;4.27;;
11921;SDS011;6021;51.182;3.160;2024-02-15T04:45:54;7.73;;;4.63;;
11921;SDS011;6021;51.182;3.160;2024-02-15T04:48:22;7.03;;;4.17;;
11921;SDS011;6021;51.182;3.160;2024-02-15T04:50:51;9.13;;;4.33;;
11921;SDS011;6021;51.182;3.160;2024-02-15T04:53:21;7.67;;;4.20;;
11921;SDS011;6021;51.182;3.160;2024-02-15T04:55:49;8.37;;;4.43;;
11921;SDS011;6021;51.182;3.160;2024-02-15T04:58:18;7.53;;;5.10;;
11921;SDS011;6021;51.182;3.160;2024-02-15T05:00:46;8.63;;;4.53;;
11921;SDS011;6021;51.182;3.160;2024-02-15T05:03:16;8.67;;;4.47;;
11921;SDS011;6021;51.182;3.160;2024-02-15T05:05:45;7.83;;;4.40;;
11921;SDS011;6021;51.182;3.160;2024-02-15T05:08:14;8.37;;;4.50;;
11921;SDS011;6021;51.182;3.160;2024-02-15T05:10:42;7.83;;;4.90;;
11921;SDS011;6021;51.182;3.160;2024-02-15T05:13:12;7.70;;;4.70;;
11921;SDS011;6021;51.182;3.160;2024-02-15T05:15:42;7.40;;;4.40;;
11921;SDS011;6021;51.182;3.160;2024-02-15T05:18:12;5.93;;;4.17;;
11921;SDS011;6021;51.182;3.160;2024-02-15T05:20:40;7.50;;;4.13;;
11921;SDS011;6021;51.182;3.160;2024-02-15T05:23:08;6.73;;;3.67;;
11921;SDS011;6021;51.182;3.160;2024-02-15T05:25:38;6.30;;;4.30;;
11921;SDS011;6021;51.182;3.160;2024-02-15T05:28:08;9.40;;;4.30;;
11921;SDS011;6021;51.182;3.160;2024-02-15T05:30:36;6.83;;;4.20;;
11921;SDS011;6021;51.182;3.160;2024-02-15T05:33:06;7.80;;;4.17;;
11921;SDS011;6021;51.182;3.160;2024-02-15T05:35:34;6.97;;;3.97;;
11921;SDS011;6021;51.182;3.160;2024-02-15T05:38:04;5.10;;;4.20;;
11921;SDS011;6021;51.182;3.160;2024-02-15T05:40:33;6.57;;;3.90;;
11921;SDS011;6021;51.182;3.160;2024-02-15T05:43:01;6.47;;;3.63;;
11921;SDS011;6021;51.182;3.160;2024-02-15T05:45:30;6.47;;;3.77;;
11921;SDS011;6021;51.182;3.160;2024-02-15T05:48:00;7.27;;;4.07;;
11921;SDS011;6021;51.182;3.160;2024-02-15T05:50:31;6.63;;;3.83;;
11921;SDS011;6021;51.182;3.160;2024-02-15T05:53:00;9.23;;;4.07;;
11921;SDS011;6021;51.182;3.160;2024-02-15T05:55:30;5.63;;;3.50;;
11921;SDS011;6021;51.182;3.160;2024-02-15T05:58:00;6.37;;;3.93;;
11921;SDS011;6021;51.182;3.160;2024-02-15T06:00:29;9.17;;;4.33;;
11921;SDS011;6021;51.182;3.160;2024-02-15T06:02:58;4.93;;;3.97;;
11921;SDS011;6021;51.182;3.160;2024-02-15T06:05:28;4.83;;;3.73;;
11921;SDS011;6021;51.182;3.160;2024-02-15T06:07:56;6.53;;;3.73;;
11921;SDS011;6021;51.182;3.160;2024-02-15T06:10:25;6.00;;;3.93;;
11921;SDS011;6021;51.182;3.160;2024-02-15T06:12:54;5.67;;;4.10;;
11921;SDS011;6021;51.182;3.160;2024-02-15T06:15:24;6.47;;;4.17;;
11921;SDS011;6021;51.182;3.160;2024-02-15T06:17:53;5.77;;;4.10;;
11921;SDS011;6021;51.182;3.160;2024-02-15T06:20:21;6.80;;;4.50;;
11921;SDS011;6021;51.182;3.160;2024-02-15T06:22:50;7.17;;;4.40;;
11921;SDS011;6021;51.182;3.160;2024-02-15T06:25:19;7.73;;;4.70;;
11921;SDS011;6021;51.182;3.160;2024-02-15T06:27:47;5.77;;;4.40;;
11921;SDS011;6021;51.182;3.160;2024-02-15T06:30:17;8.13;;;4.50;;
11921;SDS011;6021;51.182;3.160;2024-02-15T06:33:04;5.93;;;4.43;;
11921;SDS011;6021;51.182;3.160;2024-02-15T06:35:50;7.57;;;4.53;;
11921;SDS011;6021;51.182;3.160;2024-02-15T06:38:36;9.23;;;4.63;;
11921;SDS011;6021;51.182;3.160;2024-02-15T06:41:22;7.47;;;4.77;;
11921;SDS011;6021;51.182;3.160;2024-02-15T06:43:50;7.67;;;4.70;;
11921;SDS011;6021;51.182;3.160;2024-02-15T06:46:18;11.27;;;5.13;;
11921;SDS011;6021;51.182;3.160;2024-02-15T06:48:47;8.20;;;4.97;;
11921;SDS011;6021;51.182;3.160;2024-02-15T06:51:15;8.20;;;4.77;;
11921;SDS011;6021;51.182;3.160;2024-02-15T06:53:44;6.07;;;4.30;;
11921;SDS011;6021;51.182;3.160;2024-02-15T06:56:13;6.87;;;5.03;;
11921;SDS011;6021;51.182;3.160;2024-02-15T06:58:41;8.90;;;5.37;;
11921;SDS011;6021;51.182;3.160;2024-02-15T07:01:09;8.57;;;5.17;;
11921;SDS011;6021;51.182;3.160;2024-02-15T07:03:39;10.03;;;5.70;;
11921;SDS011;6021;51.182;3.160;2024-02-15T07:06:08;8.47;;;5.13;;
11921;SDS011;6021;51.182;3.160;2024-02-15T07:08:36;7.90;;;5.40;;
11921;SDS011;6021;51.182;3.160;2024-02-15T07:11:06;8.20;;;5.83;;
11921;SDS011;6021;51.182;3.160;2024-02-15T07:13:36;12.07;;;6.23;;
11921;SDS011;6021;51.182;3.160;2024-02-15T07:16:07;10.97;;;6.10;;
11921;SDS011;6021;51.182;3.160;2024-02-15T07:18:36;9.50;;;5.97;;
11921;SDS011;6021;51.182;3.160;2024-02-15T07:21:05;9.50;;;5.83;;
11921;SDS011;6021;51.182;3.160;2024-02-15T07:23:35;10.63;;;6.43;;
11921;SDS011;6021;51.182;3.160;2024-02-15T07:26:03;12.37;;;6.43;;
11921;SDS011;6021;51.182;3.160;2024-02-15T07:28:32;13.17;;;6.20;;
11921;SDS011;6021;51.182;3.160;2024-02-15T07:31:00;10.30;;;6.70;;
11921;SDS011;6021;51.182;3.160;2024-02-15T07:33:29;10.07;;;6.57;;
11921;SDS011;6021;51.182;3.160;2024-02-15T07:35:57;10.87;;;6.33;;
11921;SDS011;6021;51.182;3.160;2024-02-15T07:38:27;9.43;;;6.27;;
11921;SDS011;6021;51.182;3.160;2024-02-15T07:40:56;12.43;;;7.00;;
11921;SDS011;6021;51.182;3.160;2024-02-15T07:43:25;8.67;;;6.37;;
11921;SDS011;6021;51.182;3.160;2024-02-15T07:45:54;13.20;;;6.33;;
11921;SDS011;6021;51.182;3.160;2024-02-15T07:48:22;11.40;;;6.50;;
11921;SDS011;6021;51.182;3.160;2024-02-15T07:50:50;10.73;;;6.77;;
11921;SDS011;6021;51.182;3.160;2024-02-15T07:53:19;9.23;;;6.43;;
11921;SDS011;6021;51.182;3.160;2024-02-15T07:55:48;13.63;;;7.07;;
11921;SDS011;6021;51.182;3.160;2024-02-15T07:58:17;10.87;;;7.23;;
11921;SDS011;6021;51.182;3.160;2024-02-15T08:00:45;11.20;;;7.10;;
11921;SDS011;6021;51.182;3.160;2024-02-15T08:03:14;11.20;;;7.13;;
11921;SDS011;6021;51.182;3.160;2024-02-15T08:05:42;11.17;;;7.47;;
11921;SDS011;6021;51.182;3.160;2024-02-15T08:08:10;12.43;;;7.13;;
11921;SDS011;6021;51.182;3.160;2024-02-15T08:10:39;13.40;;;6.80;;
11921;SDS011;6021;51.182;3.160;2024-02-15T08:13:08;11.60;;;7.10;;
11921;SDS011;6021;51.182;3.160;2024-02-15T08:15:37;11.70;;;7.37;;
11921;SDS011;6021;51.182;3.160;2024-02-15T08:18:05;10.07;;;6.80;;
11921;SDS011;6021;51.182;3.160;2024-02-15T08:20:35;12.07;;;6.93;;
11921;SDS011;6021;51.182;3.160;2024-02-15T08:23:04;11.50;;;6.93;;
11921;SDS011;6021;51.182;3.160;2024-02-15T08:25:32;13.03;;;6.83;;
11921;SDS011;6021;51.182;3.160;2024-02-15T08:28:02;11.80;;;6.60;;
11921;SDS011;6021;51.182;3.160;2024-02-15T08:30:32;11.13;;;6.77;;
11921;SDS011;6021;51.182;3.160;2024-02-15T08:33:01;9.90;;;6.27;;
11921;SDS011;6021;51.182;3.160;2024-02-15T08:35:29;12.60;;;6.97;;
11921;SDS011;6021;51.182;3.160;2024-02-15T08:37:58;9.77;;;6.30;;
11921;SDS011;6021;51.182;3.160;2024-02-15T08:40:28;9.97;;;5.40;;
11921;SDS011;6021;51.182;3.160;2024-02-15T08:42:56;8.17;;;6.83;;
11921;SDS011;6021;51.182;3.160;2024-02-15T08:45:25;8.63;;;6.07;;
11921;SDS011;6021;51.182;3.160;2024-02-15T08:47:53;9.33;;;5.87;;
11921;SDS011;6021;51.182;3.160;2024-02-15T08:50:22;9.47;;;6.10;;
11921;SDS011;6021;51.182;3.160;2024-02-15T08:52:50;8.80;;;6.10;;
11921;SDS011;6021;51.182;3.160;2024-02-15T08:55:18;8.70;;;5.90;;
11921;SDS011;6021;51.182;3.160;2024-02-15T08:57:48;9.13;;;5.57;;
11921;SDS011;6021;51.182;3.160;2024-02-15T09:00:17;7.87;;;5.20;;
11921;SDS011;6021;51.182;3.160;2024-02-15T09:02:46;6.90;;;5.37;;
11921;SDS011;6021;51.182;3.160;2024-02-15T09:05:19;8.27;;;4.93;;
11921;SDS011;6021;51.182;3.160;2024-02-15T09:07:48;6.57;;;4.83;;
11921;SDS011;6021;51.182;3.160;2024-02-15T09:10:18;6.50;;;4.47;;
11921;SDS011;6021;51.182;3.160;2024-02-15T09:12:48;6.83;;;4.60;;
11921;SDS011;6021;51.182;3.160;2024-02-15T09:15:16;6.83;;;4.50;;
11921;SDS011;6021;51.182;3.160;2024-02-15T09:17:45;5.93;;;4.67;;
11921;SDS011;6021;51.182;3.160;2024-02-15T09:20:16;5.63;;;4.33;;
11921;SDS011;6021;51.182;3.160;2024-02-15T09:22:49;5.90;;;4.27;;
11921;SDS011;6021;51.182;3.160;2024-02-15T09:25:19;8.20;;;4.37;;
11921;SDS011;6021;51.182;3.160;2024-02-15T09:27:50;6.90;;;4.53;;
11921;SDS011;6021;51.182;3.160;2024-02-15T09:30:20;11.23;;;4.50;;
11921;SDS011;6021;51.182;3.160;2024-02-15T09:32:50;5.43;;;4.27;;
11921;SDS011;6021;51.182;3.160;2024-02-15T09:35:18;5.97;;;3.93;;
11921;SDS011;6021;51.182;3.160;2024-02-15T09:37:48;5.10;;;3.97;;
11921;SDS011;6021;51.182;3.160;2024-02-15T09:40:17;5.67;;;3.83;;
11921;SDS011;6021;51.182;3.160;2024-02-15T09:42:46;4.77;;;3.60;;
11921;SDS011;6021;51.182;3.160;2024-02-15T09:45:15;8.00;;;3.80;;
11921;SDS011;6021;51.182;3.160;2024-02-15T09:47:44;5.37;;;3.90;;
11921;SDS011;6021;51.182;3.160;2024-02-15T09:50:15;5.27;;;4.00;;
11921;SDS011;6021;51.182;3.160;2024-02-15T09:52:49;5.97;;;3.43;;
11921;SDS011;6021;51.182;3.160;2024-02-15T09:55:19;6.53;;;3.80;;
11921;SDS011;6021;51.182;3.160;2024-02-15T09:57:49;4.90;;;3.57;;
11921;SDS011;6021;51.182;3.160;2024-02-15T10:00:18;4.27;;;3.43;;
11921;SDS011;6021;51.182;3.160;2024-02-15T10:02:48;5.37;;;3.40;;
11921;SDS011;6021;51.182;3.160;2024-02-15T10:05:21;5.83;;;3.23;;
11921;SDS011;6021;51.182;3.160;2024-02-15T10:07:50;5.03;;;3.30;;
11921;SDS011;6021;51.182;3.160;2024-02-15T10:10:24;6.20;;;3.30;;
11921;SDS011;6021;51.182;3.160;2024-02-15T10:12:49;5.43;;;3.30;;
11921;SDS011;6021;51.182;3.160;2024-02-15T10:15:39;3.57;;;3.03;;
11921;SDS011;6021;51.182;3.160;2024-02-15T10:18:08;6.20;;;3.13;;
11921;SDS011;6021;51.182;3.160;2024-02-15T10:20:38;5.23;;;3.00;;
11921;SDS011;6021;51.182;3.160;2024-02-15T10:23:09;7.03;;;3.00;;
11921;SDS011;6021;51.182;3.160;2024-02-15T10:25:39;3.53;;;2.80;;
11921;SDS011;6021;51.182;3.160;2024-02-15T10:28:08;3.30;;;2.60;;
11921;SDS011;6021;51.182;3.160;2024-02-15T10:30:43;5.67;;;2.93;;
11921;SDS011;6021;51.182;3.160;2024-02-15T10:33:25;3.00;;;2.60;;
11921;SDS011;6021;51.182;3.160;2024-02-15T10:35:56;3.53;;;2.63;;
11921;SDS011;6021;51.182;3.160;2024-02-15T10:38:34;5.30;;;2.80;;
11921;SDS011;6021;51.182;3.160;2024-02-15T10:41:03;4.10;;;2.70;;
11921;SDS011;6021;51.182;3.160;2024-02-15T10:43:33;3.67;;;2.80;;
11921;SDS011;6021;51.182;3.160;2024-02-15T10:46:03;3.30;;;2.53;;
11921;SDS011;6021;51.182;3.160;2024-02-15T10:48:33;6.43;;;2.93;;
11921;SDS011;6021;51.182;3.160;2024-02-15T10:51:03;3.67;;;2.60;;
11921;SDS011;6021;51.182;3.160;2024-02-15T10:53:33;3.40;;;2.60;;
11921;SDS011;6021;51.182;3.160;2024-02-15T10:56:22;5.90;;;2.87;;
11921;SDS011;6021;51.182;3.160;2024-02-15T10:58:51;5.97;;;2.83;;
11921;SDS011;6021;51.182;3.160;2024-02-15T11:01:25;2.90;;;2.60;;
11921;SDS011;6021;51.182;3.160;2024-02-15T11:03:59;4.77;;;2.93;;
11921;SDS011;6021;51.182;3.160;2024-02-15T11:06:28;3.33;;;2.47;;
11921;SDS011;6021;51.182;3.160;2024-02-15T11:08:59;5.73;;;3.13;;
11921;SDS011;6021;51.182;3.160;2024-02-15T11:11:29;5.07;;;2.90;;
11921;SDS011;6021;51.182;3.160;2024-02-15T11:16:51;5.53;;;2.70;;
11921;SDS011;6021;51.182;3.160;2024-02-15T11:22:13;4.90;;;2.67;;
11921;SDS011;6021;51.182;3.160;2024-02-15T11:24:50;4.07;;;2.60;;
11921;SDS011;6021;51.182;3.160;2024-02-15T11:27:26;2.87;;;2.40;;
11921;SDS011;6021;51.182;3.160;2024-02-15T11:29:56;4.00;;;2.30;;
11921;SDS011;6021;51.182;3.160;2024-02-15T11:32:42;3.27;;;2.30;;
11921;SDS011;6021;51.182;3.160;2024-02-15T11:40:25;4.47;;;2.73;;
11921;SDS011;6021;51.182;3.160;2024-02-15T11:43:03;2.73;;;2.40;;
11921;SDS011;6021;51.182;3.160;2024-02-15T11:45:30;3.23;;;2.27;;
11921;SDS011;6021;51.182;3.160;2024-02-15T11:48:02;3.27;;;2.50;;
11921;SDS011;6021;51.182;3.160;2024-02-15T11:50:36;3.90;;;2.40;;
11921;SDS011;6021;51.182;3.160;2024-02-15T11:53:06;4.23;;;2.53;;
11921;SDS011;6021;51.182;3.160;2024-02-15T11:55:37;5.40;;;2.30;;
11921;SDS011;6021;51.182;3.160;2024-02-15T11:58:07;3.30;;;2.67;;
11921;SDS011;6021;51.182;3.160;2024-02-15T12:00:38;3.30;;;2.30;;
11921;SDS011;6021;51.182;3.160;2024-02-15T12:03:25;4.70;;;2.43;;
11921;SDS011;6021;51.182;3.160;2024-02-15T12:06:11;3.00;;;2.07;;
11921;SDS011;6021;51.182;3.160;2024-02-15T12:08:59;2.70;;;2.00;;
11921;SDS011;6021;51.182;3.160;2024-02-15T12:11:46;3.10;;;2.00;;
11921;SDS011;6021;51.182;3.160;2024-02-15T12:14:32;3.93;;;2.23;;
11921;SDS011;6021;51.182;3.160;2024-02-15T12:17:18;5.33;;;2.33;;
11921;SDS011;6021;51.182;3.160;2024-02-15T12:20:05;3.97;;;2.20;;
11921;SDS011;6021;51.182;3.160;2024-02-15T12:22:46;3.00;;;2.10;;
11921;SDS011;6021;51.182;3.160;2024-02-15T12:25:14;4.33;;;2.33;;
11921;SDS011;6021;51.182;3.160;2024-02-15T12:27:45;2.90;;;1.97;;
11921;SDS011;6021;51.182;3.160;2024-02-15T12:30:17;3.27;;;2.10;;
11921;SDS011;6021;51.182;3.160;2024-02-15T12:32:49;3.10;;;2.07;;
11921;SDS011;6021;51.182;3.160;2024-02-15T12:35:21;3.93;;;2.20;;
11921;SDS011;6021;51.182;3.160;2024-02-15T12:38:00;3.20;;;2.30;;
11921;SDS011;6021;51.182;3.160;2024-02-15T12:40:35;3.83;;;2.10;;
11921;SDS011;6021;51.182;3.160;2024-02-15T12:43:04;4.10;;;2.20;;
11921;SDS011;6021;51.182;3.160;2024-02-15T12:45:41;4.17;;;2.30;;
11921;SDS011;6021;51.182;3.160;2024-02-15T12:48:09;4.57;;;2.40;;
11921;SDS011;6021;51.182;3.160;2024-02-15T12:50:38;3.67;;;2.40;;
11921;SDS011;6021;51.182;3.160;2024-02-15T12:53:06;4.93;;;2.30;;
11921;SDS011;6021;51.182;3.160;2024-02-15T12:55:35;3.43;;;2.27;;
11921;SDS011;6021;51.182;3.160;2024-02-15T12:58:12;2.90;;;2.23;;
11921;SDS011;6021;51.182;3.160;2024-02-15T13:00:37;3.47;;;2.33;;
11921;SDS011;6021;51.182;3.160;2024-02-15T13:03:08;8.93;;;2.97;;
11921;SDS011;6021;51.182;3.160;2024-02-15T13:05:37;2.97;;;2.20;;
11921;SDS011;6021;51.182;3.160;2024-02-15T13:08:06;2.50;;;2.30;;
11921;SDS011;6021;51.182;3.160;2024-02-15T13:10:39;4.80;;;2.60;;
11921;SDS011;6021;51.182;3.160;2024-02-15T13:13:07;5.30;;;2.50;;
11921;SDS011;6021;51.182;3.160;2024-02-15T13:15:40;5.73;;;2.27;;
11921;SDS011;6021;51.182;3.160;2024-02-15T13:18:10;3.07;;;2.20;;
11921;SDS011;6021;51.182;3.160;2024-02-15T13:20:40;2.63;;;2.10;;
11921;SDS011;6021;51.182;3.160;2024-02-15T13:23:09;2.80;;;2.00;;
11921;SDS011;6021;51.182;3.160;2024-02-15T13:25:42;2.70;;;1.83;;
11921;SDS011;6021;51.182;3.160;2024-02-15T13:28:12;2.47;;;2.00;;
11921;SDS011;6021;51.182;3.160;2024-02-15T13:30:41;5.87;;;2.00;;
11921;SDS011;6021;51.182;3.160;2024-02-15T13:33:11;3.43;;;1.87;;
11921;SDS011;6021;51.182;3.160;2024-02-15T13:35:40;2.80;;;2.13;;
11921;SDS011;6021;51.182;3.160;2024-02-15T13:38:08;2.83;;;2.13;;
11921;SDS011;6021;51.182;3.160;2024-02-15T13:40:38;2.53;;;1.80;;
11921;SDS011;6021;51.182;3.160;2024-02-15T13:43:08;4.10;;;2.10;;
11921;SDS011;6021;51.182;3.160;2024-02-15T13:45:40;3.37;;;2.00;;
11921;SDS011;6021;51.182;3.160;2024-02-15T13:48:08;3.40;;;2.20;;
11921;SDS011;6021;51.182;3.160;2024-02-15T13:50:39;4.43;;;2.30;;
11921;SDS011;6021;51.182;3.160;2024-02-15T13:53:08;4.20;;;2.13;;
11921;SDS011;6021;51.182;3.160;2024-02-15T13:55:37;4.17;;;2.17;;
11921;SDS011;6021;51.182;3.160;2024-02-15T13:58:06;4.70;;;2.17;;
11921;SDS011;6021;51.182;3.160;2024-02-15T14:00:36;4.30;;;2.20;;
11921;SDS011;6021;51.182;3.160;2024-02-15T14:03:06;4.83;;;2.27;;
11921;SDS011;6021;51.182;3.160;2024-02-15T14:05:36;3.73;;;2.10;;
11921;SDS011;6021;51.182;3.160;2024-02-15T14:08:06;5.83;;;2.37;;
11921;SDS011;6021;51.182;3.160;2024-02-15T14:10:37;3.57;;;2.07;;
11921;SDS011;6021;51.182;3.160;2024-02-15T14:13:06;2.97;;;1.90;;
11921;SDS011;6021;51.182;3.160;2024-02-15T14:15:35;3.33;;;2.00;;
11921;SDS011;6021;51.182;3.160;2024-02-15T14:18:07;2.57;;;1.97;;
11921;SDS011;6021;51.182;3.160;2024-02-15T14:20:37;3.37;;;2.13;;
11921;SDS011;6021;51.182;3.160;2024-02-15T14:23:05;3.23;;;2.17;;
11921;SDS011;6021;51.182;3.160;2024-02-15T14:25:35;5.33;;;2.30;;
11921;SDS011;6021;51.182;3.160;2024-02-15T14:28:04;3.57;;;2.30;;
11921;SDS011;6021;51.182;3.160;2024-02-15T14:30:35;2.93;;;2.10;;
11921;SDS011;6021;51.182;3.160;2024-02-15T14:33:21;3.93;;;2.13;;
11921;SDS011;6021;51.182;3.160;2024-02-15T14:35:50;4.93;;;2.20;;
11921;SDS011;6021;51.182;3.160;2024-02-15T14:38:21;2.83;;;1.87;;
11921;SDS011;6021;51.182;3.160;2024-02-15T14:40:50;3.23;;;2.17;;
11921;SDS011;6021;51.182;3.160;2024-02-15T14:43:23;3.87;;;2.10;;
11921;SDS011;6021;51.182;3.160;2024-02-15T14:45:53;3.40;;;2.10;;
11921;SDS011;6021;51.182;3.160;2024-02-15T14:48:22;4.27;;;2.10;;
11921;SDS011;6021;51.182;3.160;2024-02-15T14:50:51;4.53;;;2.10;;
11921;SDS011;6021;51.182;3.160;2024-02-15T14:53:19;3.67;;;1.80;;
11921;SDS011;6021;51.182;3.160;2024-02-15T14:55:49;3.07;;;2.03;;
11921;SDS011;6021;51.182;3.160;2024-02-15T14:58:19;3.13;;;2.03;;
11921;SDS011;6021;51.182;3.160;2024-02-15T15:00:48;2.70;;;2.10;;
11921;SDS011;6021;51.182;3.160;2024-02-15T15:03:17;4.43;;;2.10;;
11921;SDS011;6021;51.182;3.160;2024-02-15T15:08:52;3.80;;;2.00;;
11921;SDS011;6021;51.182;3.160;2024-02-15T15:11:38;2.60;;;1.80;;
11921;SDS011;6021;51.182;3.160;2024-02-15T15:14:24;2.67;;;1.70;;
11921;SDS011;6021;51.182;3.160;2024-02-15T15:16:54;3.13;;;2.10;;
11921;SDS011;6021;51.182;3.160;2024-02-15T15:19:22;3.33;;;1.90;;
11921;SDS011;6021;51.182;3.160;2024-02-15T15:21:51;3.90;;;2.03;;
11921;SDS011;6021;51.182;3.160;2024-02-15T15:24:20;2.37;;;1.90;;
11921;SDS011;6021;51.182;3.160;2024-02-15T15:26:48;2.77;;;1.90;;
11921;SDS011;6021;51.182;3.160;2024-02-15T15:29:17;2.83;;;2.00;;
11921;SDS011;6021;51.182;3.160;2024-02-15T15:31:45;3.93;;;1.97;;